RLSO2: Arkansas River, Ralston, OK

                                SHEF ID:       RLSO2     Arkansas River at Ralston, OK
STATION TYPE:
Regulating: Stage = 16.00, Flow = 78729

PRECIP STAGE STAGE(2) RIV-FLOW AIR-TEMP BAT-LOAD
in ft ft cfs F volt
Ccp-Rev Ccp-Rev Ccp-Rev Ccp-Rev Ccp-Rev Ccp-Rev
(America/Chicago)
04/27 00:00 0.00 5.74 5.73 4733 75.02 12.74
04/27 01:00 0.00 5.70 5.70 4623 74.84 12.73
04/27 02:00 0.00 5.64 5.70 4460 74.84 12.71
04/27 03:00 0.00 5.63 5.69 4433 75.02 12.70
04/27 04:00 0.00 5.61 5.68 4380 75.20 12.68
04/27 05:00 0.00 5.60 5.65 4353 75.02 12.67
04/27 06:00 0.00 5.60 5.64 4353 74.66 12.66
04/27 07:00 0.00 5.56 5.62 4243 74.84 12.65
04/27 08:00 0.00 5.55 5.59 4215 76.46 12.66
04/27 09:00 0.00 5.52 5.60 4133 79.70 12.78
04/27 10:00 0.00 5.56 5.58 4243 81.68 13.07
04/27 11:00 0.00 5.54 5.53 4188 82.04 13.16
04/27 12:00 0.00 5.49 5.50 4051 81.86 13.11
04/27 13:00 0.00 5.46 5.49 3970 82.40 13.04
04/27 14:00 0.00 5.44 5.47 3917 83.12 13.03
04/27 15:00 0.00 5.42 5.48 3864 84.20 13.03
04/27 16:00 0.00 5.46 5.46 3970 85.28 12.96
04/27 17:00 0.00 5.42 5.47 3864 86.18 12.88
04/27 18:00 0.00 5.44 5.51 3917 86.00 12.84
04/27 19:00 0.00 5.48 5.53 4024 81.68 12.82
04/27 20:00 0.00 5.46 5.55 3970 77.00 12.80
04/27 21:00 0.00 5.51 5.52 4105 73.22 12.77
04/27 22:00 0.00 5.48 5.51 4024 71.60 12.76
04/27 23:00 ---- ---- ---- ---- ---- ----
Data processed at Tue 28Apr2026 03:21 GMT

NOTICE: If you are parsing this page

Please convert to using our Data API. Starting early 2026 we will be migrating to: https://water.usace.army.mil with modern pages rendered in JavaScript. When this migration completes you will no longer be able to scrape this page! CWMSDataAPI (CDA)

Timeseries IDs (TSIDs)

TSIDs used from left to right in the data table
RALS.Precip-Inc.Total.1Hour.1Hour.Ccp-Rev
RALS.Stage.Inst.1Hour.0.Ccp-Rev
RALS.Stage-Alt.Inst.1Hour.0.Ccp-Rev
RALS.Flow.Inst.1Hour.0.Ccp-Rev
RALS.Temp-Air.Inst.1Hour.0.Ccp-Rev
RALS.Volt-Battery Load.Inst.1Hour.0.Ccp-Rev

                            

All information presented herein is the property of the government of the United States of America and may be revised or deleted at any time without prior notice. Dissemination of this information without the expressed written consent of the Public Affairs Office, Tulsa District U.S. Army Corps of Engineers is strictly prohibited. These data are gathered electronically and, as presented, have NOT undergone any form of quality control. These data are NOT guaranteed to be valid or correct.